sensor_id;sensor_type;location;lat;lon;timestamp;pressure;altitude;pressure_sealevel;temperature;humidity
75409;BME280;63979;55.644;37.734;2023-09-08T00:01:29;100566.56;;;14.27;57.78
75409;BME280;63979;55.644;37.734;2023-09-08T00:06:31;100553.34;;;14.24;57.79
75409;BME280;63979;55.644;37.734;2023-09-08T00:11:32;100551.09;;;14.18;58.62
75409;BME280;63979;55.644;37.734;2023-09-08T00:16:33;100546.47;;;14.20;58.09
75409;BME280;63979;55.644;37.734;2023-09-08T00:21:34;100544.53;;;14.22;57.79
75409;BME280;63979;55.644;37.734;2023-09-08T00:26:35;100541.84;;;14.22;57.47
75409;BME280;63979;55.644;37.734;2023-09-08T00:31:36;100508.72;;;13.97;57.55
75409;BME280;63979;55.644;37.734;2023-09-08T00:36:37;100529.59;;;14.18;57.50
75409;BME280;63979;55.644;37.734;2023-09-08T00:41:38;100535.19;;;14.27;56.93
75409;BME280;63979;55.644;37.734;2023-09-08T00:46:40;100540.13;;;14.21;57.64
75409;BME280;63979;55.644;37.734;2023-09-08T00:51:41;100526.28;;;14.14;57.52
75409;BME280;63979;55.644;37.734;2023-09-08T00:56:42;100505.59;;;14.03;57.48
75409;BME280;63979;55.644;37.734;2023-09-08T01:01:43;100528.78;;;14.04;57.45
75409;BME280;63979;55.644;37.734;2023-09-08T01:06:45;100482.00;;;13.83;57.53
75409;BME280;63979;55.644;37.734;2023-09-08T01:11:46;100522.38;;;13.94;58.67
75409;BME280;63979;55.644;37.734;2023-09-08T01:16:48;100518.28;;;13.89;58.41
75409;BME280;63979;55.644;37.734;2023-09-08T01:27:25;100472.38;;;13.55;59.25
75409;BME280;63979;55.644;37.734;2023-09-08T01:32:29;100511.72;;;13.80;59.38
75409;BME280;63979;55.644;37.734;2023-09-08T01:37:30;100517.66;;;13.72;59.78
75409;BME280;63979;55.644;37.734;2023-09-08T01:42:31;100502.63;;;13.70;59.26
75409;BME280;63979;55.644;37.734;2023-09-08T01:47:32;100504.25;;;13.60;59.57
75409;BME280;63979;55.644;37.734;2023-09-08T01:52:34;100501.22;;;13.64;59.72
75409;BME280;63979;55.644;37.734;2023-09-08T01:57:35;100497.59;;;13.65;59.78
75409;BME280;63979;55.644;37.734;2023-09-08T02:02:36;100499.84;;;13.71;59.85
75409;BME280;63979;55.644;37.734;2023-09-08T02:07:37;100489.66;;;13.64;61.00
75409;BME280;63979;55.644;37.734;2023-09-08T02:12:38;100496.81;;;13.51;62.23
75409;BME280;63979;55.644;37.734;2023-09-08T02:17:40;100495.22;;;13.35;63.72
75409;BME280;63979;55.644;37.734;2023-09-08T02:22:41;100486.09;;;13.25;64.73
75409;BME280;63979;55.644;37.734;2023-09-08T02:27:42;100476.91;;;13.15;64.83
75409;BME280;63979;55.644;37.734;2023-09-08T02:32:43;100469.50;;;13.06;66.52
75409;BME280;63979;55.644;37.734;2023-09-08T02:37:44;100462.41;;;13.19;67.68
75409;BME280;63979;55.644;37.734;2023-09-08T02:42:46;100461.69;;;13.16;68.25
75409;BME280;63979;55.644;37.734;2023-09-08T02:47:47;100457.28;;;13.15;67.09
75409;BME280;63979;55.644;37.734;2023-09-08T02:52:49;100444.53;;;13.05;66.53
75409;BME280;63979;55.644;37.734;2023-09-08T02:57:50;100434.47;;;13.09;67.04
75409;BME280;63979;55.644;37.734;2023-09-08T03:02:51;100448.50;;;13.12;67.19
75409;BME280;63979;55.644;37.734;2023-09-08T03:07:52;100441.88;;;13.18;66.62
75409;BME280;63979;55.644;37.734;2023-09-08T03:12:54;100435.28;;;13.24;65.79
75409;BME280;63979;55.644;37.734;2023-09-08T03:17:55;100434.94;;;13.28;66.05
75409;BME280;63979;55.644;37.734;2023-09-08T03:22:57;100437.63;;;13.28;65.94
75409;BME280;63979;55.644;37.734;2023-09-08T03:27:59;100443.41;;;13.35;66.01
75409;BME280;63979;55.644;37.734;2023-09-08T03:33:00;100436.31;;;13.47;65.17
75409;BME280;63979;55.644;37.734;2023-09-08T03:38:02;100425.94;;;13.55;65.35
75409;BME280;63979;55.644;37.734;2023-09-08T03:43:04;100419.03;;;13.51;65.03
75409;BME280;63979;55.644;37.734;2023-09-08T03:48:05;100419.16;;;13.62;63.97
75409;BME280;63979;55.644;37.734;2023-09-08T03:53:06;100412.88;;;13.74;64.43
75409;BME280;63979;55.644;37.734;2023-09-08T03:58:07;100419.22;;;14.10;62.75
75409;BME280;63979;55.644;37.734;2023-09-08T04:03:08;100411.38;;;14.43;61.26
75409;BME280;63979;55.644;37.734;2023-09-08T04:08:09;100398.44;;;14.72;59.79
75409;BME280;63979;55.644;37.734;2023-09-08T04:13:10;100401.09;;;15.07;59.05
75409;BME280;63979;55.644;37.734;2023-09-08T04:18:11;100409.31;;;14.82;59.34
75409;BME280;63979;55.644;37.734;2023-09-08T04:23:12;100407.59;;;14.70;60.08
75409;BME280;63979;55.644;37.734;2023-09-08T04:28:13;100404.00;;;14.93;58.43
75409;BME280;63979;55.644;37.734;2023-09-08T04:33:14;100401.09;;;15.18;57.56
75409;BME280;63979;55.644;37.734;2023-09-08T04:38:15;100387.91;;;15.38;56.59
75409;BME280;63979;55.644;37.734;2023-09-08T04:43:16;100390.59;;;15.49;56.20
75409;BME280;63979;55.644;37.734;2023-09-08T04:48:17;100349.25;;;15.50;54.96
75409;BME280;63979;55.644;37.734;2023-09-08T04:53:18;100386.31;;;16.02;53.29
75409;BME280;63979;55.644;37.734;2023-09-08T04:58:20;100382.91;;;15.44;53.80
75409;BME280;63979;55.644;37.734;2023-09-08T05:03:21;100379.97;;;15.58;53.73
75409;BME280;63979;55.644;37.734;2023-09-08T05:08:22;100370.16;;;15.57;53.24
75409;BME280;63979;55.644;37.734;2023-09-08T05:13:23;100345.84;;;15.59;53.85
75409;BME280;63979;55.644;37.734;2023-09-08T05:18:27;100359.06;;;16.16;52.08
75409;BME280;63979;55.644;37.734;2023-09-08T05:23:28;100351.44;;;17.77;48.81
75409;BME280;63979;55.644;37.734;2023-09-08T05:28:29;100346.00;;;18.75;44.92
75409;BME280;63979;55.644;37.734;2023-09-08T05:33:30;100347.47;;;19.07;43.85
75409;BME280;63979;55.644;37.734;2023-09-08T05:38:31;100328.97;;;19.49;41.98
75409;BME280;63979;55.644;37.734;2023-09-08T05:43:32;100333.59;;;20.11;40.42
75409;BME280;63979;55.644;37.734;2023-09-08T05:48:33;100329.78;;;20.49;38.86
75409;BME280;63979;55.644;37.734;2023-09-08T05:53:35;100325.50;;;20.91;37.64
75409;BME280;63979;55.644;37.734;2023-09-08T05:58:36;100327.63;;;21.05;37.21
75409;BME280;63979;55.644;37.734;2023-09-08T06:03:37;100308.91;;;20.50;38.74
75409;BME280;63979;55.644;37.734;2023-09-08T06:08:38;100299.66;;;21.38;36.86
75409;BME280;63979;55.644;37.734;2023-09-08T06:13:39;100282.66;;;21.28;36.98
75409;BME280;63979;55.644;37.734;2023-09-08T06:18:40;100297.69;;;25.05;31.14
75409;BME280;63979;55.644;37.734;2023-09-08T06:23:42;100311.75;;;27.39;27.38
75409;BME280;63979;55.644;37.734;2023-09-08T06:28:43;100300.97;;;29.38;24.19
75409;BME280;63979;55.644;37.734;2023-09-08T06:33:44;100296.66;;;26.87;25.98
75409;BME280;63979;55.644;37.734;2023-09-08T06:38:45;100289.66;;;24.29;30.23
75409;BME280;63979;55.644;37.734;2023-09-08T06:43:47;100287.56;;;24.53;29.72
75409;BME280;63979;55.644;37.734;2023-09-08T06:48:48;100266.91;;;23.82;31.08
75409;BME280;63979;55.644;37.734;2023-09-08T06:53:58;100262.75;;;21.70;36.08
75409;BME280;63979;55.644;37.734;2023-09-08T06:59:00;100244.84;;;22.09;35.26
75409;BME280;63979;55.644;37.734;2023-09-08T07:04:02;100233.38;;;21.73;35.81
75409;BME280;63979;55.644;37.734;2023-09-08T07:09:03;100213.44;;;20.29;37.11
75409;BME280;63979;55.644;37.734;2023-09-08T07:14:05;100221.91;;;22.36;33.81
75409;BME280;63979;55.644;37.734;2023-09-08T07:19:06;100233.97;;;23.53;32.06
75409;BME280;63979;55.644;37.734;2023-09-08T07:24:08;100222.44;;;24.27;29.96
75409;BME280;63979;55.644;37.734;2023-09-08T07:29:09;100220.63;;;26.39;27.28
75409;BME280;63979;55.644;37.734;2023-09-08T07:34:11;100228.75;;;26.82;25.58
75409;BME280;63979;55.644;37.734;2023-09-08T07:39:12;100223.53;;;29.79;23.10
75409;BME280;63979;55.644;37.734;2023-09-08T07:44:13;100213.91;;;28.73;22.61
75409;BME280;63979;55.644;37.734;2023-09-08T07:49:14;100214.09;;;26.68;25.65
75409;BME280;63979;55.644;37.734;2023-09-08T07:54:15;100197.34;;;24.09;29.19
75409;BME280;63979;55.644;37.734;2023-09-08T07:59:17;100195.53;;;22.45;31.72
75409;BME280;63979;55.644;37.734;2023-09-08T08:04:18;100186.16;;;22.64;32.29
75409;BME280;63979;55.644;37.734;2023-09-08T08:09:19;100185.41;;;24.48;28.84
75409;BME280;63979;55.644;37.734;2023-09-08T08:14:20;100171.28;;;24.59;29.12
75409;BME280;63979;55.644;37.734;2023-09-08T08:19:21;100173.38;;;25.16;27.97
75409;BME280;63979;55.644;37.734;2023-09-08T08:24:23;100149.38;;;26.61;26.05
75409;BME280;63979;55.644;37.734;2023-09-08T08:29:24;100127.91;;;26.36;25.59
75409;BME280;63979;55.644;37.734;2023-09-08T08:34:25;100123.00;;;24.60;28.04
75409;BME280;63979;55.644;37.734;2023-09-08T08:39:27;100133.13;;;23.30;30.49
75409;BME280;63979;55.644;37.734;2023-09-08T08:44:29;100127.06;;;21.93;31.97
75409;BME280;63979;55.644;37.734;2023-09-08T08:49:34;100113.72;;;20.40;35.17
75409;BME280;63979;55.644;37.734;2023-09-08T08:54:38;100117.97;;;19.73;37.17
75409;BME280;63979;55.644;37.734;2023-09-08T08:59:39;100108.91;;;19.47;38.27
75409;BME280;63979;55.644;37.734;2023-09-08T09:04:42;100081.06;;;19.37;38.41
75409;BME280;63979;55.644;37.734;2023-09-08T09:09:43;100078.31;;;20.42;36.50
75409;BME280;63979;55.644;37.734;2023-09-08T09:14:45;100078.34;;;19.72;38.12
75409;BME280;63979;55.644;37.734;2023-09-08T09:19:48;100080.97;;;19.82;38.43
75409;BME280;63979;55.644;37.734;2023-09-08T09:24:49;100063.56;;;20.44;36.78
75409;BME280;63979;55.644;37.734;2023-09-08T09:29:50;100058.81;;;23.13;31.84
75409;BME280;63979;55.644;37.734;2023-09-08T09:34:52;100071.16;;;23.01;32.78
75409;BME280;63979;55.644;37.734;2023-09-08T09:39:54;100068.28;;;22.63;33.99
75409;BME280;63979;55.644;37.734;2023-09-08T09:44:56;100076.41;;;22.08;33.90
75409;BME280;63979;55.644;37.734;2023-09-08T09:49:57;100064.53;;;20.77;39.07
75409;BME280;63979;55.644;37.734;2023-09-08T09:54:59;100063.06;;;19.89;42.78
75409;BME280;63979;55.644;37.734;2023-09-08T10:00:01;100062.31;;;20.65;40.38
75409;BME280;63979;55.644;37.734;2023-09-08T10:05:11;100062.09;;;21.08;38.97
75409;BME280;63979;55.644;37.734;2023-09-08T10:10:15;100061.75;;;20.19;40.86
75409;BME280;63979;55.644;37.734;2023-09-08T10:15:20;100060.88;;;19.31;46.00
75409;BME280;63979;55.644;37.734;2023-09-08T10:20:27;100059.63;;;19.08;46.64
75409;BME280;63979;55.644;37.734;2023-09-08T10:25:31;100073.78;;;19.19;46.26
75409;BME280;63979;55.644;37.734;2023-09-08T10:30:34;100059.22;;;19.02;44.00
75409;BME280;63979;55.644;37.734;2023-09-08T10:35:36;100078.84;;;18.87;44.31
75409;BME280;63979;55.644;37.734;2023-09-08T10:40:37;100080.91;;;18.48;47.78
75409;BME280;63979;55.644;37.734;2023-09-08T10:45:39;100097.50;;;18.53;50.33
75409;BME280;63979;55.644;37.734;2023-09-08T10:50:42;100095.03;;;18.96;47.49
75409;BME280;63979;55.644;37.734;2023-09-08T10:55:48;100059.22;;;19.38;46.17
75409;BME280;63979;55.644;37.734;2023-09-08T11:00:52;100088.44;;;20.66;43.20
75409;BME280;63979;55.644;37.734;2023-09-08T11:05:59;100085.75;;;21.81;40.18
75409;BME280;63979;55.644;37.734;2023-09-08T11:11:01;100079.44;;;24.37;35.70
75409;BME280;63979;55.644;37.734;2023-09-08T11:16:02;100090.03;;;25.05;35.02
75409;BME280;63979;55.644;37.734;2023-09-08T11:21:07;100093.69;;;22.79;39.32
75409;BME280;63979;55.644;37.734;2023-09-08T11:26:11;100120.72;;;21.27;45.58
75409;BME280;63979;55.644;37.734;2023-09-08T11:31:12;100109.97;;;18.73;49.96
75409;BME280;63979;55.644;37.734;2023-09-08T11:36:14;100114.25;;;17.72;52.36
75409;BME280;63979;55.644;37.734;2023-09-08T11:41:16;100118.47;;;17.46;53.01
75409;BME280;63979;55.644;37.734;2023-09-08T11:46:18;100090.63;;;17.55;54.81
75409;BME280;63979;55.644;37.734;2023-09-08T11:51:23;100105.09;;;21.29;46.96
75409;BME280;63979;55.644;37.734;2023-09-08T11:56:25;100088.59;;;22.84;43.33
75409;BME280;63979;55.644;37.734;2023-09-08T12:01:26;100102.75;;;22.24;43.54
75409;BME280;63979;55.644;37.734;2023-09-08T12:06:28;100091.81;;;23.18;39.54
75409;BME280;63979;55.644;37.734;2023-09-08T12:11:34;100097.91;;;26.91;31.63
75409;BME280;63979;55.644;37.734;2023-09-08T12:16:36;100115.31;;;30.60;27.56
75409;BME280;63979;55.644;37.734;2023-09-08T12:21:59;100116.41;;;30.09;25.78
75409;BME280;63979;55.644;37.734;2023-09-08T12:27:03;100117.47;;;29.45;27.24
75409;BME280;63979;55.644;37.734;2023-09-08T12:32:04;100102.19;;;28.34;28.84
75409;BME280;63979;55.644;37.734;2023-09-08T12:37:06;100094.94;;;26.45;32.21
75409;BME280;63979;55.644;37.734;2023-09-08T12:42:08;100105.44;;;24.24;33.52
75409;BME280;63979;55.644;37.734;2023-09-08T12:47:10;100106.13;;;22.18;35.89
75409;BME280;63979;55.644;37.734;2023-09-08T12:52:13;100099.13;;;20.67;38.24
75409;BME280;63979;55.644;37.734;2023-09-08T12:57:14;100117.97;;;19.73;40.73
75409;BME280;63979;55.644;37.734;2023-09-08T13:02:15;100122.03;;;19.95;40.60
75409;BME280;63979;55.644;37.734;2023-09-08T13:07:16;100123.94;;;20.20;39.88
75409;BME280;63979;55.644;37.734;2023-09-08T13:12:17;100120.72;;;19.99;39.09
75409;BME280;63979;55.644;37.734;2023-09-08T13:17:18;100119.81;;;19.90;40.14
75409;BME280;63979;55.644;37.734;2023-09-08T13:22:19;100127.00;;;19.28;39.90
75409;BME280;63979;55.644;37.734;2023-09-08T13:27:20;100132.13;;;18.86;41.05
75409;BME280;63979;55.644;37.734;2023-09-08T13:32:21;100148.78;;;18.45;42.59
75409;BME280;63979;55.644;37.734;2023-09-08T13:37:23;100153.13;;;18.08;42.11
75409;BME280;63979;55.644;37.734;2023-09-08T13:42:24;100157.28;;;17.84;42.06
75409;BME280;63979;55.644;37.734;2023-09-08T13:47:25;100150.47;;;17.89;41.53
75409;BME280;63979;55.644;37.734;2023-09-08T13:52:26;100161.41;;;17.88;41.49
75409;BME280;63979;55.644;37.734;2023-09-08T13:57:27;100155.41;;;18.03;41.08
75409;BME280;63979;55.644;37.734;2023-09-08T14:02:28;100158.56;;;17.80;42.01
75409;BME280;63979;55.644;37.734;2023-09-08T14:07:29;100165.13;;;17.77;42.70
75409;BME280;63979;55.644;37.734;2023-09-08T14:12:30;100159.25;;;17.43;42.22
75409;BME280;63979;55.644;37.734;2023-09-08T14:17:31;100177.72;;;17.48;42.40
75409;BME280;63979;55.644;37.734;2023-09-08T14:22:32;100171.88;;;17.42;42.45
75409;BME280;63979;55.644;37.734;2023-09-08T14:27:33;100186.09;;;17.35;42.98
75409;BME280;63979;55.644;37.734;2023-09-08T14:32:35;100183.63;;;17.12;43.07
75409;BME280;63979;55.644;37.734;2023-09-08T14:37:36;100186.19;;;16.74;42.65
75409;BME280;63979;55.644;37.734;2023-09-08T14:42:37;100192.47;;;16.63;43.23
75409;BME280;63979;55.644;37.734;2023-09-08T14:47:38;100188.97;;;16.42;43.09
75409;BME280;63979;55.644;37.734;2023-09-08T14:52:39;100215.72;;;16.34;43.49
75409;BME280;63979;55.644;37.734;2023-09-08T14:57:42;100225.78;;;16.11;44.31
75409;BME280;63979;55.644;37.734;2023-09-08T15:02:43;100224.34;;;16.07;43.92
75409;BME280;63979;55.644;37.734;2023-09-08T15:07:44;100227.53;;;16.01;45.37
75409;BME280;63979;55.644;37.734;2023-09-08T15:12:45;100239.03;;;16.03;44.25
75409;BME280;63979;55.644;37.734;2023-09-08T15:17:46;100227.31;;;15.93;44.35
75409;BME280;63979;55.644;37.734;2023-09-08T15:22:48;100246.94;;;15.83;44.36
75409;BME280;63979;55.644;37.734;2023-09-08T15:27:50;100250.06;;;15.68;44.14
75409;BME280;63979;55.644;37.734;2023-09-08T15:32:51;100260.72;;;15.47;44.76
75409;BME280;63979;55.644;37.734;2023-09-08T15:37:52;100252.19;;;15.19;45.63
75409;BME280;63979;55.644;37.734;2023-09-08T15:42:53;100277.41;;;15.07;47.37
75409;BME280;63979;55.644;37.734;2023-09-08T15:47:54;100285.34;;;15.09;46.36
75409;BME280;63979;55.644;37.734;2023-09-08T15:52:55;100289.63;;;15.00;46.75
75409;BME280;63979;55.644;37.734;2023-09-08T15:57:57;100283.13;;;14.80;48.24
75409;BME280;63979;55.644;37.734;2023-09-08T16:02:58;100286.84;;;14.55;48.53
75409;BME280;63979;55.644;37.734;2023-09-08T16:08:00;100279.72;;;14.32;49.26
75409;BME280;63979;55.644;37.734;2023-09-08T16:13:01;100289.88;;;14.16;50.16
75409;BME280;63979;55.644;37.734;2023-09-08T16:18:02;100264.50;;;13.85;50.58
75409;BME280;63979;55.644;37.734;2023-09-08T16:23:05;100296.50;;;13.88;50.94
75409;BME280;63979;55.644;37.734;2023-09-08T16:28:07;100309.81;;;13.89;51.05
75409;BME280;63979;55.644;37.734;2023-09-08T16:33:08;100324.28;;;14.11;51.01
75409;BME280;63979;55.644;37.734;2023-09-08T16:38:09;100317.78;;;14.02;51.55
75409;BME280;63979;55.644;37.734;2023-09-08T16:43:15;100327.91;;;13.98;51.74
75409;BME280;63979;55.644;37.734;2023-09-08T16:48:16;100315.03;;;13.67;52.98
75409;BME280;63979;55.644;37.734;2023-09-08T16:53:18;100335.13;;;13.61;53.46
75409;BME280;63979;55.644;37.734;2023-09-08T16:58:19;100327.53;;;13.42;53.81
75409;BME280;63979;55.644;37.734;2023-09-08T17:03:20;100337.97;;;13.34;54.87
75409;BME280;63979;55.644;37.734;2023-09-08T17:08:21;100337.53;;;13.40;54.84
75409;BME280;63979;55.644;37.734;2023-09-08T17:13:23;100342.22;;;13.50;55.00
75409;BME280;63979;55.644;37.734;2023-09-08T17:18:24;100341.06;;;13.54;55.28
75409;BME280;63979;55.644;37.734;2023-09-08T17:23:25;100340.97;;;13.42;55.00
75409;BME280;63979;55.644;37.734;2023-09-08T17:28:27;100344.13;;;13.24;55.49
75409;BME280;63979;55.644;37.734;2023-09-08T17:33:28;100352.22;;;13.09;55.79
75409;BME280;63979;55.644;37.734;2023-09-08T17:38:29;100332.53;;;12.85;57.03
75409;BME280;63979;55.644;37.734;2023-09-08T17:43:31;100309.78;;;12.53;57.35
75409;BME280;63979;55.644;37.734;2023-09-08T17:48:32;100350.50;;;12.70;57.80
75409;BME280;63979;55.644;37.734;2023-09-08T17:53:33;100351.78;;;12.52;58.60
75409;BME280;63979;55.644;37.734;2023-09-08T17:58:36;100345.09;;;12.45;58.27
75409;BME280;63979;55.644;37.734;2023-09-08T18:03:37;100358.84;;;12.53;59.07
75409;BME280;63979;55.644;37.734;2023-09-08T18:08:39;100353.50;;;12.66;58.86
75409;BME280;63979;55.644;37.734;2023-09-08T18:13:40;100364.56;;;12.87;58.19
75409;BME280;63979;55.644;37.734;2023-09-08T18:18:43;100365.09;;;13.04;57.45
75409;BME280;63979;55.644;37.734;2023-09-08T18:23:46;100362.09;;;13.09;57.33
75409;BME280;63979;55.644;37.734;2023-09-08T18:28:47;100357.41;;;13.25;56.45
75409;BME280;63979;55.644;37.734;2023-09-08T18:33:48;100372.09;;;13.32;56.64
75409;BME280;63979;55.644;37.734;2023-09-08T18:38:51;100367.16;;;13.26;56.41
75409;BME280;63979;55.644;37.734;2023-09-08T18:43:52;100377.53;;;13.18;56.75
75409;BME280;63979;55.644;37.734;2023-09-08T18:48:53;100388.34;;;13.17;56.70
75409;BME280;63979;55.644;37.734;2023-09-08T18:53:54;100389.31;;;13.03;57.02
75409;BME280;63979;55.644;37.734;2023-09-08T18:58:55;100392.13;;;12.89;57.28
75409;BME280;63979;55.644;37.734;2023-09-08T19:03:57;100385.97;;;12.61;58.04
75409;BME280;63979;55.644;37.734;2023-09-08T19:08:59;100395.97;;;12.45;58.98
75409;BME280;63979;55.644;37.734;2023-09-08T19:14:00;100396.72;;;12.47;59.21
75409;BME280;63979;55.644;37.734;2023-09-08T19:19:02;100382.03;;;12.40;58.81
75409;BME280;63979;55.644;37.734;2023-09-08T19:24:03;100389.81;;;12.57;59.16
75409;BME280;63979;55.644;37.734;2023-09-08T19:29:05;100374.38;;;12.61;58.73
75409;BME280;63979;55.644;37.734;2023-09-08T19:34:07;100388.00;;;12.70;58.84
75409;BME280;63979;55.644;37.734;2023-09-08T19:39:09;100392.41;;;12.71;58.68
75409;BME280;63979;55.644;37.734;2023-09-08T19:44:11;100388.00;;;12.83;58.64
75409;BME280;63979;55.644;37.734;2023-09-08T19:49:12;100386.75;;;12.89;58.74
75409;BME280;63979;55.644;37.734;2023-09-08T19:54:13;100393.81;;;12.90;58.33
75409;BME280;63979;55.644;37.734;2023-09-08T19:59:15;100397.88;;;12.82;58.39
75409;BME280;63979;55.644;37.734;2023-09-08T20:04:19;100389.88;;;12.95;58.15
75409;BME280;63979;55.644;37.734;2023-09-08T20:09:20;100397.03;;;12.95;57.81
75409;BME280;63979;55.644;37.734;2023-09-08T20:14:22;100398.53;;;12.99;57.84
75409;BME280;63979;55.644;37.734;2023-09-08T20:19:23;100406.16;;;13.05;57.66
75409;BME280;63979;55.644;37.734;2023-09-08T20:24:24;100409.25;;;12.99;57.94
75409;BME280;63979;55.644;37.734;2023-09-08T20:29:26;100419.34;;;13.08;57.97
75409;BME280;63979;55.644;37.734;2023-09-08T20:34:29;100417.41;;;12.97;58.15
75409;BME280;63979;55.644;37.734;2023-09-08T20:39:30;100427.38;;;13.08;57.94
75409;BME280;63979;55.644;37.734;2023-09-08T20:44:31;100444.66;;;13.04;58.15
75409;BME280;63979;55.644;37.734;2023-09-08T20:49:33;100449.78;;;13.07;58.45
75409;BME280;63979;55.644;37.734;2023-09-08T20:54:34;100442.72;;;12.93;59.33
75409;BME280;63979;55.644;37.734;2023-09-08T20:59:36;100439.91;;;12.95;59.24
75409;BME280;63979;55.644;37.734;2023-09-08T21:04:37;100451.88;;;12.76;60.37
75409;BME280;63979;55.644;37.734;2023-09-08T21:09:38;100452.09;;;12.73;60.58
75409;BME280;63979;55.644;37.734;2023-09-08T21:14:40;100463.22;;;12.67;60.52
75409;BME280;63979;55.644;37.734;2023-09-08T21:19:41;100462.56;;;12.64;61.22
75409;BME280;63979;55.644;37.734;2023-09-08T21:24:42;100472.88;;;12.70;60.96
75409;BME280;63979;55.644;37.734;2023-09-08T21:29:43;100474.13;;;12.64;61.25
75409;BME280;63979;55.644;37.734;2023-09-08T21:34:46;100481.41;;;12.62;61.64
75409;BME280;63979;55.644;37.734;2023-09-08T21:39:48;100461.84;;;12.47;62.03
75409;BME280;63979;55.644;37.734;2023-09-08T21:44:49;100474.47;;;12.45;62.61
75409;BME280;63979;55.644;37.734;2023-09-08T21:49:51;100477.47;;;12.41;62.76
75409;BME280;63979;55.644;37.734;2023-09-08T21:54:52;100484.63;;;12.40;63.15
75409;BME280;63979;55.644;37.734;2023-09-08T21:59:53;100487.97;;;12.44;63.29
75409;BME280;63979;55.644;37.734;2023-09-08T22:04:55;100477.66;;;12.38;63.12
75409;BME280;63979;55.644;37.734;2023-09-08T22:09:56;100489.91;;;12.42;63.12
75409;BME280;63979;55.644;37.734;2023-09-08T22:14:57;100493.06;;;12.34;64.11
75409;BME280;63979;55.644;37.734;2023-09-08T22:19:59;100486.00;;;12.33;63.65
75409;BME280;63979;55.644;37.734;2023-09-08T22:25:00;100489.13;;;12.40;63.17
75409;BME280;63979;55.644;37.734;2023-09-08T22:30:04;100491.81;;;12.40;63.73
75409;BME280;63979;55.644;37.734;2023-09-08T22:35:09;100504.91;;;12.44;63.55
75409;BME280;63979;55.644;37.734;2023-09-08T22:40:10;100498.34;;;12.36;64.04
75409;BME280;63979;55.644;37.734;2023-09-08T22:45:12;100509.03;;;12.36;64.26
75409;BME280;63979;55.644;37.734;2023-09-08T22:50:14;100514.44;;;12.22;64.66
75409;BME280;63979;55.644;37.734;2023-09-08T22:55:15;100508.53;;;12.16;65.14
75409;BME280;63979;55.644;37.734;2023-09-08T23:00:16;100515.00;;;12.12;65.24
75409;BME280;63979;55.644;37.734;2023-09-08T23:05:17;100521.31;;;12.11;65.74
75409;BME280;63979;55.644;37.734;2023-09-08T23:10:19;100522.06;;;12.13;65.80
75409;BME280;63979;55.644;37.734;2023-09-08T23:15:21;100512.16;;;12.01;66.42
75409;BME280;63979;55.644;37.734;2023-09-08T23:20:23;100532.97;;;12.10;66.36
75409;BME280;63979;55.644;37.734;2023-09-08T23:25:24;100524.84;;;12.12;66.08
75409;BME280;63979;55.644;37.734;2023-09-08T23:30:25;100527.72;;;12.09;66.50
75409;BME280;63979;55.644;37.734;2023-09-08T23:35:26;100541.19;;;12.07;66.73
75409;BME280;63979;55.644;37.734;2023-09-08T23:40:28;100532.50;;;12.18;66.36
75409;BME280;63979;55.644;37.734;2023-09-08T23:45:30;100538.44;;;12.23;66.04
75409;BME280;63979;55.644;37.734;2023-09-08T23:50:56;100539.00;;;12.14;66.82
75409;BME280;63979;55.644;37.734;2023-09-08T23:55:59;100514.06;;;11.99;66.50
